createdAt,value
2019-01-26T00:01:17.759Z,15.97
2019-01-26T00:03:46.207Z,15.67
2019-01-26T00:06:14.900Z,25.07
2019-01-26T00:08:43.335Z,15.87
2019-01-26T00:11:11.910Z,15.77
2019-01-26T00:13:40.417Z,16.40
2019-01-26T00:16:08.871Z,15.63
2019-01-26T00:18:37.316Z,14.53
2019-01-26T00:21:05.782Z,15.40
2019-01-26T00:23:36.231Z,15.17
2019-01-26T00:26:10.542Z,15.03
2019-01-26T00:28:39.011Z,13.60
2019-01-26T00:31:07.451Z,14.03
2019-01-26T00:33:35.988Z,12.00
2019-01-26T00:36:05.635Z,10.83
2019-01-26T00:38:34.112Z,12.13
2019-01-26T00:41:03.409Z,12.33
2019-01-26T00:43:31.867Z,12.40
2019-01-26T00:46:00.303Z,13.07
2019-01-26T00:48:28.847Z,12.33
2019-01-26T00:50:57.288Z,12.60
2019-01-26T00:53:25.747Z,13.63
2019-01-26T00:55:54.227Z,13.47
2019-01-26T00:58:23.852Z,14.70
2019-01-26T01:00:52.486Z,15.03
2019-01-26T01:03:20.915Z,16.93
2019-01-26T01:05:49.375Z,15.57
2019-01-26T01:08:18.052Z,15.97
2019-01-26T01:10:46.540Z,15.60
2019-01-26T01:13:15.151Z,16.13
2019-01-26T01:15:43.671Z,16.53
2019-01-26T01:18:14.748Z,18.50
2019-01-26T01:20:43.208Z,17.70
2019-01-26T01:23:12.699Z,18.30
2019-01-26T01:25:42.226Z,18.10
2019-01-26T01:28:29.999Z,17.80
2019-01-26T01:30:58.451Z,19.13
2019-01-26T01:33:26.899Z,18.93
2019-01-26T01:35:55.410Z,18.80
2019-01-26T01:38:23.881Z,16.90
2019-01-26T01:40:52.343Z,17.87
2019-01-26T01:43:20.851Z,18.57
2019-01-26T01:45:49.758Z,17.73
2019-01-26T01:48:18.241Z,17.17
2019-01-26T01:50:46.755Z,18.77
2019-01-26T01:53:15.207Z,16.70
2019-01-26T01:55:43.746Z,17.57
2019-01-26T01:58:12.208Z,18.40
2019-01-26T02:00:40.651Z,16.20
2019-01-26T02:03:09.181Z,15.80
2019-01-26T02:05:37.692Z,16.50
2019-01-26T02:08:06.223Z,16.60
2019-01-26T02:10:34.999Z,16.23
2019-01-26T02:13:03.467Z,16.50
2019-01-26T02:15:31.892Z,16.40
2019-01-26T02:18:00.354Z,16.43
2019-01-26T02:20:28.867Z,17.50
2019-01-26T02:22:57.312Z,16.30
2019-01-26T02:25:25.830Z,16.20
2019-01-26T02:27:54.280Z,17.50
2019-01-26T02:30:28.628Z,16.53
2019-01-26T02:32:58.056Z,17.37
2019-01-26T02:35:26.506Z,16.50
2019-01-26T02:37:54.955Z,18.30
2019-01-26T02:40:23.484Z,16.47
2019-01-26T02:42:51.925Z,17.00
2019-01-26T02:45:20.446Z,18.87
2019-01-26T02:47:48.883Z,17.60
2019-01-26T02:50:18.872Z,16.17
2019-01-26T02:52:47.320Z,16.60
2019-01-26T02:55:15.846Z,17.67
2019-01-26T02:57:44.532Z,16.33
2019-01-26T03:00:21.443Z,15.90
2019-01-26T03:02:50.015Z,15.30
2019-01-26T03:05:37.983Z,16.97
2019-01-26T03:08:06.487Z,15.97
2019-01-26T03:10:34.942Z,14.60
2019-01-26T03:13:03.621Z,15.80
2019-01-26T03:15:32.076Z,16.70
2019-01-26T03:18:00.579Z,16.07
2019-01-26T03:20:29.038Z,16.53
2019-01-26T03:22:57.507Z,16.87
2019-01-26T03:25:25.936Z,16.33
2019-01-26T03:27:54.407Z,16.90
2019-01-26T03:30:24.789Z,15.93
2019-01-26T03:32:53.239Z,17.17
2019-01-26T03:35:21.738Z,18.00
2019-01-26T03:37:50.207Z,18.23
2019-01-26T03:40:22.608Z,17.13
2019-01-26T03:42:51.263Z,18.13
2019-01-26T03:45:19.992Z,21.70
2019-01-26T03:47:48.635Z,17.23
2019-01-26T03:50:17.712Z,17.33
2019-01-26T03:52:46.242Z,18.50
2019-01-26T03:55:17.515Z,16.97
2019-01-26T03:57:46.507Z,18.47
2019-01-26T04:00:23.908Z,19.30
2019-01-26T04:02:52.444Z,19.13
2019-01-26T04:05:21.123Z,18.97
2019-01-26T04:07:49.810Z,20.27
2019-01-26T04:10:18.602Z,20.40
2019-01-26T04:12:47.191Z,21.30
2019-01-26T04:15:19.980Z,22.50
2019-01-26T04:17:49.036Z,21.90
2019-01-26T04:20:20.099Z,22.80
2019-01-26T04:22:48.748Z,23.23
2019-01-26T04:25:17.207Z,24.20
2019-01-26T04:27:45.654Z,22.13
2019-01-26T04:30:16.922Z,24.83
2019-01-26T04:32:45.387Z,23.10
2019-01-26T04:35:13.972Z,24.37
2019-01-26T04:37:42.424Z,24.60
2019-01-26T04:40:13.503Z,24.50
2019-01-26T04:42:42.041Z,23.33
2019-01-26T04:45:16.084Z,25.43
2019-01-26T04:47:44.611Z,24.40
2019-01-26T04:50:15.421Z,25.30
2019-01-26T04:52:43.873Z,24.00
2019-01-26T04:55:12.652Z,24.43
2019-01-26T04:57:41.276Z,26.13
2019-01-26T05:00:12.792Z,25.60
2019-01-26T05:02:41.247Z,24.97
2019-01-26T05:05:10.031Z,25.47
2019-01-26T05:07:38.559Z,28.00
2019-01-26T05:10:10.213Z,25.27
2019-01-26T05:12:48.057Z,24.50
2019-01-26T05:15:17.535Z,25.40
2019-01-26T05:17:45.983Z,26.80
2019-01-26T05:20:17.441Z,27.10
2019-01-26T05:22:45.935Z,27.53
2019-01-26T05:25:14.751Z,26.63
2019-01-26T05:27:48.223Z,25.87
2019-01-26T05:30:27.084Z,27.63
2019-01-26T05:32:55.605Z,27.27
2019-01-26T05:35:24.200Z,26.70
2019-01-26T05:37:55.374Z,29.00
2019-01-26T05:40:23.896Z,27.50
2019-01-26T05:42:52.328Z,27.10
2019-01-26T05:45:22.122Z,28.00
2019-01-26T05:47:51.530Z,24.67
2019-01-26T05:50:24.841Z,26.70
2019-01-26T05:52:53.627Z,28.23
2019-01-26T05:55:22.318Z,26.97
2019-01-26T05:57:53.450Z,26.80
2019-01-26T06:00:28.152Z,26.50
2019-01-26T06:02:56.589Z,25.67
2019-01-26T06:05:25.111Z,26.07
2019-01-26T06:07:56.636Z,26.47
2019-01-26T06:10:25.165Z,25.07
2019-01-26T06:12:53.668Z,23.03
2019-01-26T06:15:23.060Z,26.23
2019-01-26T06:17:55.118Z,25.83
2019-01-26T06:20:21.820Z,25.60
2019-01-26T06:22:50.251Z,24.70
2019-01-26T06:25:20.348Z,24.30
2019-01-26T06:27:49.130Z,25.10
2019-01-26T06:30:20.171Z,24.40
2019-01-26T06:32:48.883Z,23.23
2019-01-26T06:35:17.455Z,24.20
2019-01-26T06:37:46.054Z,23.43
2019-01-26T06:40:16.935Z,25.20
2019-01-26T06:42:45.392Z,24.47
2019-01-26T06:45:16.359Z,22.80
2019-01-26T06:47:44.815Z,23.03
2019-01-26T06:50:16.950Z,22.90
2019-01-26T06:52:55.667Z,22.90
2019-01-26T06:55:24.260Z,23.43
2019-01-26T06:57:52.987Z,24.07
2019-01-26T07:00:26.208Z,21.80
2019-01-26T07:02:55.286Z,21.13
2019-01-26T07:05:25.453Z,22.77
2019-01-26T07:08:00.114Z,21.50
2019-01-26T07:10:29.694Z,21.87
2019-01-26T07:12:58.130Z,21.60
2019-01-26T07:15:46.005Z,21.57
2019-01-26T07:18:14.440Z,21.80
2019-01-26T07:20:42.886Z,21.17
2019-01-26T07:23:11.348Z,21.07
2019-01-26T07:25:39.790Z,19.60
2019-01-26T07:28:08.312Z,20.87
2019-01-26T07:30:36.818Z,18.97
2019-01-26T07:33:06.348Z,19.47
2019-01-26T07:35:34.818Z,20.47
2019-01-26T07:38:03.342Z,20.40
2019-01-26T07:40:31.848Z,18.23
2019-01-26T07:43:00.380Z,19.47
2019-01-26T07:45:28.832Z,18.10
2019-01-26T07:47:57.276Z,18.83
2019-01-26T07:50:27.283Z,16.23
2019-01-26T07:52:55.801Z,17.13
2019-01-26T07:55:26.434Z,18.03
2019-01-26T07:57:55.011Z,16.40
2019-01-26T08:00:26.002Z,17.00
2019-01-26T08:02:54.435Z,16.30
2019-01-26T08:05:23.241Z,15.60
2019-01-26T08:07:51.736Z,14.87
2019-01-26T08:10:25.416Z,14.83
2019-01-26T08:12:54.093Z,13.23
2019-01-26T08:15:25.599Z,13.70
2019-01-26T08:17:55.127Z,13.27
2019-01-26T08:20:23.919Z,13.43
2019-01-26T08:22:52.426Z,12.20
2019-01-26T08:25:20.942Z,13.50
2019-01-26T08:27:49.477Z,12.07
2019-01-26T08:30:22.495Z,14.03
2019-01-26T08:32:51.470Z,10.67
2019-01-26T08:35:20.324Z,13.33
2019-01-26T08:37:49.307Z,11.53
2019-01-26T08:40:19.994Z,11.30
2019-01-26T08:42:48.667Z,12.47
2019-01-26T08:45:18.280Z,11.40
2019-01-26T08:47:46.852Z,11.37
2019-01-26T08:50:20.668Z,11.53
2019-01-26T08:52:49.240Z,10.20
2019-01-26T08:55:18.398Z,10.87
2019-01-26T08:57:47.395Z,9.80
2019-01-26T09:00:21.675Z,9.90
2019-01-26T09:02:55.951Z,9.13
2019-01-26T09:05:31.941Z,9.67
2019-01-26T09:08:00.378Z,10.43
2019-01-26T09:10:28.850Z,10.70
2019-01-26T09:12:57.275Z,10.63
2019-01-26T09:15:25.784Z,9.63
2019-01-26T09:17:54.243Z,8.80
2019-01-26T09:20:23.664Z,8.53
2019-01-26T09:22:52.120Z,8.10
2019-01-26T09:25:20.556Z,8.40
2019-01-26T09:27:49.292Z,8.80
2019-01-26T09:30:19.783Z,8.40
2019-01-26T09:32:48.625Z,7.87
2019-01-26T09:35:23.151Z,8.10
2019-01-26T09:37:51.603Z,8.97
2019-01-26T09:40:22.266Z,7.03
2019-01-26T09:42:57.950Z,7.77
2019-01-26T09:45:41.285Z,7.10
2019-01-26T09:48:09.802Z,7.20
2019-01-26T09:50:38.303Z,6.50
2019-01-26T09:53:06.901Z,7.20
2019-01-26T09:55:35.345Z,6.93
2019-01-26T09:58:04.258Z,6.90
2019-01-26T10:00:32.763Z,7.30
2019-01-26T10:03:01.203Z,7.23
2019-01-26T10:05:29.652Z,7.70
2019-01-26T10:07:58.094Z,7.10
2019-01-26T10:10:26.662Z,6.60
2019-01-26T10:13:14.464Z,6.93
2019-01-26T10:15:42.890Z,6.80
2019-01-26T10:18:11.657Z,6.70
2019-01-26T10:20:42.542Z,6.50
2019-01-26T10:23:10.987Z,7.47
2019-01-26T10:25:39.432Z,7.10
2019-01-26T10:28:07.935Z,7.53
2019-01-26T10:30:40.759Z,7.47
2019-01-26T10:33:14.980Z,7.10
2019-01-26T10:36:03.041Z,7.57
2019-01-26T10:38:33.209Z,7.30
2019-01-26T10:41:09.352Z,8.37
2019-01-26T10:43:39.443Z,8.00
2019-01-26T10:46:07.882Z,8.87
2019-01-26T10:48:36.378Z,9.10
2019-01-26T10:51:05.011Z,9.23
2019-01-26T10:53:33.469Z,8.43
2019-01-26T10:56:01.907Z,10.07
2019-01-26T10:58:30.386Z,9.73
2019-01-26T11:00:58.846Z,9.50
2019-01-26T11:03:27.282Z,10.60
2019-01-26T11:05:55.820Z,9.43
2019-01-26T11:08:24.406Z,10.60
2019-01-26T11:10:52.863Z,8.87
2019-01-26T11:13:22.278Z,9.47
2019-01-26T11:15:50.753Z,9.30
2019-01-26T11:18:19.630Z,9.70
2019-01-26T11:20:48.223Z,10.63
2019-01-26T11:23:16.665Z,10.97
2019-01-26T11:25:45.123Z,9.37
2019-01-26T11:28:13.572Z,10.20
2019-01-26T11:30:42.028Z,9.83
2019-01-26T11:33:10.561Z,10.07
2019-01-26T11:35:39.059Z,9.30
2019-01-26T11:38:07.513Z,9.80
2019-01-26T11:40:35.963Z,9.53
2019-01-26T11:43:04.471Z,10.13
2019-01-26T11:45:37.248Z,10.87
2019-01-26T11:48:08.348Z,10.27
2019-01-26T11:51:00.479Z,10.80
2019-01-26T11:53:28.947Z,9.20
2019-01-26T11:56:07.820Z,10.53
2019-01-26T11:58:36.474Z,9.40
2019-01-26T12:01:19.020Z,9.90
2019-01-26T12:03:55.071Z,9.60
2019-01-26T12:06:25.175Z,9.53
2019-01-26T12:08:53.610Z,10.27
2019-01-26T12:11:23.056Z,10.40
2019-01-26T12:13:51.512Z,10.60
2019-01-26T12:16:26.728Z,10.50
2019-01-26T12:18:50.132Z,9.70
2019-01-26T12:21:24.554Z,9.23
2019-01-26T12:23:54.164Z,8.97
2019-01-26T12:26:22.603Z,10.37
2019-01-26T12:28:51.133Z,9.50
2019-01-26T12:31:19.583Z,8.80
2019-01-26T12:33:49.114Z,9.00
2019-01-26T12:36:17.551Z,9.63
2019-01-26T12:38:46.026Z,10.70
2019-01-26T12:41:14.563Z,11.90
2019-01-26T12:43:43.096Z,11.10
2019-01-26T12:46:11.534Z,10.17
2019-01-26T12:48:40.074Z,11.90
2019-01-26T12:51:08.570Z,10.80
2019-01-26T12:53:37.035Z,11.30
2019-01-26T12:56:06.832Z,11.77
2019-01-26T12:58:35.335Z,10.60
2019-01-26T13:01:04.126Z,7.13
2019-01-26T13:03:32.622Z,6.67
2019-01-26T13:06:01.351Z,6.53
2019-01-26T13:08:29.869Z,6.20
2019-01-26T13:11:10.327Z,6.10
2019-01-26T13:13:44.583Z,5.37
2019-01-26T13:16:13.802Z,5.80
2019-01-26T13:18:42.412Z,4.73
2019-01-26T13:21:10.923Z,4.43
2019-01-26T13:23:39.428Z,5.30
2019-01-26T13:26:07.876Z,3.67
2019-01-26T13:28:36.376Z,5.00
2019-01-26T13:31:05.054Z,6.03
2019-01-26T13:33:33.492Z,5.83
2019-01-26T13:36:01.940Z,5.30
2019-01-26T13:38:30.388Z,5.70
2019-01-26T13:40:58.847Z,6.37
2019-01-26T13:43:27.279Z,6.23
2019-01-26T13:45:55.730Z,5.10
2019-01-26T13:48:24.163Z,4.90
2019-01-26T13:50:55.612Z,5.20
2019-01-26T13:53:29.871Z,4.87
2019-01-26T13:55:58.393Z,5.70
2019-01-26T13:58:34.848Z,4.60
2019-01-26T14:01:09.350Z,4.83
2019-01-26T14:03:37.865Z,5.30
2019-01-26T14:06:06.437Z,5.40
2019-01-26T14:08:34.884Z,5.30
2019-01-26T14:11:03.344Z,4.83
2019-01-26T14:13:31.814Z,4.13
2019-01-26T14:16:00.320Z,4.00
2019-01-26T14:18:28.827Z,3.30
2019-01-26T14:20:58.335Z,2.63
2019-01-26T14:23:27.932Z,3.83
2019-01-26T14:25:56.358Z,3.10
2019-01-26T14:28:24.884Z,3.47
2019-01-26T14:30:54.751Z,2.97
2019-01-26T14:33:23.266Z,2.20
2019-01-26T14:35:51.716Z,2.30
2019-01-26T14:38:20.439Z,2.10
2019-01-26T14:40:48.935Z,2.20
2019-01-26T14:43:17.487Z,2.40
2019-01-26T14:45:48.083Z,3.00
2019-01-26T14:48:22.717Z,2.30
2019-01-26T14:50:53.311Z,2.30
2019-01-26T14:53:21.808Z,1.80
2019-01-26T14:55:50.301Z,1.20
2019-01-26T14:58:18.727Z,1.07
2019-01-26T15:00:47.251Z,1.30
2019-01-26T15:03:15.682Z,1.13
2019-01-26T15:05:46.182Z,1.10
2019-01-26T15:08:14.619Z,1.27
2019-01-26T15:10:44.064Z,1.07
2019-01-26T15:13:15.328Z,1.33
2019-01-26T15:15:43.784Z,1.30
2019-01-26T15:18:12.219Z,1.07
2019-01-26T15:20:41.133Z,1.30
2019-01-26T15:23:09.722Z,1.83
2019-01-26T15:25:39.330Z,1.97
2019-01-26T15:28:08.278Z,1.40
2019-01-26T15:30:38.990Z,1.17
2019-01-26T15:33:08.339Z,1.23
2019-01-26T15:35:38.943Z,1.10
2019-01-26T15:38:07.547Z,1.30
2019-01-26T15:40:36.055Z,1.57
2019-01-26T15:43:04.835Z,1.97
2019-01-26T15:45:42.125Z,1.77
2019-01-26T15:48:10.834Z,2.10
2019-01-26T15:50:39.358Z,2.03
2019-01-26T15:53:07.995Z,2.17
2019-01-26T15:55:37.413Z,1.80
2019-01-26T15:58:06.191Z,1.80
2019-01-26T16:00:37.548Z,1.30
2019-01-26T16:03:06.275Z,1.30
2019-01-26T16:05:34.805Z,1.00
2019-01-26T16:08:04.101Z,1.80
2019-01-26T16:10:32.606Z,1.03
2019-01-26T16:13:01.138Z,1.60
2019-01-26T16:15:35.084Z,1.33
2019-01-26T16:18:04.686Z,1.23
2019-01-26T16:20:33.271Z,1.47
2019-01-26T16:23:01.699Z,1.50
2019-01-26T16:25:30.352Z,1.40
2019-01-26T16:27:58.847Z,1.90
2019-01-26T16:30:32.214Z,1.63
2019-01-26T16:33:00.714Z,2.10
2019-01-26T16:35:29.876Z,1.83
2019-01-26T16:38:00.014Z,2.20
2019-01-26T16:40:32.814Z,2.50
2019-01-26T16:43:01.332Z,1.97
2019-01-26T16:45:32.363Z,2.00
2019-01-26T16:48:00.875Z,2.00
2019-01-26T16:50:31.086Z,1.77
2019-01-26T16:53:00.642Z,2.10
2019-01-26T16:55:29.238Z,1.93
2019-01-26T16:57:57.722Z,2.37
2019-01-26T17:00:38.398Z,2.23
2019-01-26T17:03:06.911Z,2.03
2019-01-26T17:05:35.636Z,2.50
2019-01-26T17:08:05.160Z,2.63
2019-01-26T17:10:34.302Z,2.97
2019-01-26T17:13:03.331Z,2.10
2019-01-26T17:15:31.775Z,2.47
2019-01-26T17:18:13.457Z,2.90
2019-01-26T17:20:40.018Z,2.30
2019-01-26T17:23:14.362Z,1.80
2019-01-26T17:25:42.869Z,2.17
2019-01-26T17:28:11.394Z,2.70
2019-01-26T17:30:41.497Z,2.60
2019-01-26T17:33:10.181Z,2.60
2019-01-26T17:35:38.740Z,2.57
2019-01-26T17:38:07.631Z,2.50
2019-01-26T17:40:36.133Z,2.63
2019-01-26T17:43:04.916Z,2.57
2019-01-26T17:45:33.420Z,1.67
2019-01-26T17:48:01.892Z,2.20
2019-01-26T17:50:30.872Z,2.47
2019-01-26T17:52:59.426Z,2.50
2019-01-26T17:55:27.883Z,3.40
2019-01-26T17:57:56.444Z,1.83
2019-01-26T18:00:43.612Z,2.13
2019-01-26T18:03:12.319Z,2.20
2019-01-26T18:05:40.802Z,2.20
2019-01-26T18:08:09.251Z,2.13
2019-01-26T18:10:37.706Z,2.67
2019-01-26T18:13:06.279Z,2.90
2019-01-26T18:15:34.734Z,2.90
2019-01-26T18:18:03.241Z,2.80
2019-01-26T18:20:31.774Z,2.90
2019-01-26T18:23:01.769Z,2.33
2019-01-26T18:25:31.912Z,2.37
2019-01-26T18:28:00.342Z,2.93
2019-01-26T18:30:30.841Z,2.90
2019-01-26T18:32:59.328Z,3.10
2019-01-26T18:35:27.995Z,2.70
2019-01-26T18:37:56.446Z,2.83
2019-01-26T18:40:27.013Z,2.53
2019-01-26T18:42:55.796Z,2.73
2019-01-26T18:45:27.010Z,3.60
2019-01-26T18:47:55.440Z,3.57
2019-01-26T18:50:45.086Z,2.97
2019-01-26T18:53:13.518Z,3.77
2019-01-26T18:55:41.971Z,2.80
2019-01-26T18:58:10.466Z,3.33
2019-01-26T19:00:44.916Z,3.17
2019-01-26T19:03:22.595Z,2.80
2019-01-26T19:05:58.567Z,3.20
2019-01-26T19:08:27.227Z,3.00
2019-01-26T19:11:01.743Z,2.67
2019-01-26T19:13:30.168Z,2.90
2019-01-26T19:15:58.615Z,2.53
2019-01-26T19:18:27.045Z,2.57
2019-01-26T19:20:55.642Z,2.63
2019-01-26T19:23:24.081Z,2.57
2019-01-26T19:25:52.537Z,1.90
2019-01-26T19:28:20.968Z,3.00
2019-01-26T19:30:49.407Z,2.43
2019-01-26T19:33:17.928Z,2.37
2019-01-26T19:35:46.501Z,2.20
2019-01-26T19:38:15.127Z,2.20
2019-01-26T19:40:43.555Z,1.90
2019-01-26T19:43:12.096Z,1.77
2019-01-26T19:45:40.556Z,1.60
2019-01-26T19:48:09.072Z,2.17
2019-01-26T19:50:37.511Z,1.70
2019-01-26T19:53:06.099Z,1.63
2019-01-26T19:55:34.592Z,1.70
2019-01-26T19:58:03.105Z,1.30
2019-01-26T20:00:31.551Z,1.10
2019-01-26T20:03:00.224Z,1.40
2019-01-26T20:05:28.809Z,1.23
2019-01-26T20:07:57.396Z,1.27
2019-01-26T20:10:25.923Z,1.20
2019-01-26T20:12:54.422Z,0.90
2019-01-26T20:15:24.325Z,1.10
2019-01-26T20:17:52.923Z,1.00
2019-01-26T20:20:30.396Z,1.10
2019-01-26T20:22:58.844Z,1.10
2019-01-26T20:25:27.364Z,1.40
2019-01-26T20:27:56.011Z,1.40
2019-01-26T20:30:27.076Z,1.20
2019-01-26T20:32:55.643Z,1.17
2019-01-26T20:35:24.251Z,1.30
2019-01-26T20:37:52.946Z,1.47
2019-01-26T20:40:21.698Z,1.60
2019-01-26T20:42:51.199Z,1.57
2019-01-26T20:45:25.035Z,1.57
2019-01-26T20:47:53.463Z,1.73
2019-01-26T20:50:22.058Z,1.40
2019-01-26T20:52:57.336Z,1.00
2019-01-26T20:55:28.515Z,0.90
2019-01-26T20:57:57.034Z,1.10
2019-01-26T21:00:32.683Z,1.37
2019-01-26T21:03:01.260Z,1.27
2019-01-26T21:05:29.766Z,0.80
2019-01-26T21:07:58.354Z,1.30
2019-01-26T21:10:30.288Z,0.97
2019-01-26T21:12:59.346Z,0.90
2019-01-26T21:15:28.014Z,1.10
2019-01-26T21:17:56.490Z,1.20
2019-01-26T21:20:26.462Z,1.10
2019-01-26T21:22:54.907Z,1.47
2019-01-26T21:25:29.394Z,1.57
2019-01-26T21:27:57.938Z,1.30
2019-01-26T21:30:27.830Z,1.60
2019-01-26T21:32:57.782Z,1.03
2019-01-26T21:35:29.386Z,1.50
2019-01-26T21:37:58.974Z,0.90
2019-01-26T21:40:30.341Z,0.97
2019-01-26T21:42:59.427Z,1.20
2019-01-26T21:45:28.015Z,1.80
2019-01-26T21:47:56.539Z,2.17
2019-01-26T21:50:30.006Z,1.27
2019-01-26T21:52:58.608Z,1.90
2019-01-26T21:55:27.283Z,1.73
2019-01-26T21:57:55.800Z,1.87
2019-01-26T22:00:29.237Z,1.33
2019-01-26T22:02:57.739Z,1.40
2019-01-26T22:05:26.253Z,0.97
2019-01-26T22:07:54.830Z,1.13
2019-01-26T22:10:26.349Z,1.20
2019-01-26T22:12:54.775Z,1.37
2019-01-26T22:15:24.370Z,1.40
2019-01-26T22:17:52.874Z,1.93
2019-01-26T22:20:26.035Z,1.43
2019-01-26T22:22:54.607Z,1.07
2019-01-26T22:25:23.203Z,0.80
2019-01-26T22:27:52.777Z,1.10
2019-01-26T22:30:23.825Z,1.37
2019-01-26T22:32:52.250Z,1.30
2019-01-26T22:35:20.946Z,1.13
2019-01-26T22:37:49.714Z,1.30
2019-01-26T22:40:29.579Z,1.20
2019-01-26T22:42:58.084Z,1.23
2019-01-26T22:45:26.950Z,1.37
2019-01-26T22:47:55.536Z,1.03
2019-01-26T22:50:26.018Z,1.17
2019-01-26T22:52:54.699Z,1.00
2019-01-26T22:55:24.362Z,0.87
2019-01-26T22:57:52.944Z,1.50
2019-01-26T23:00:26.122Z,1.00
2019-01-26T23:02:54.643Z,0.90
2019-01-26T23:05:35.315Z,1.10
2019-01-26T23:08:04.771Z,1.27
2019-01-26T23:10:51.205Z,0.93
2019-01-26T23:13:22.756Z,1.20
2019-01-26T23:16:09.703Z,0.80
2019-01-26T23:18:50.026Z,0.90
2019-01-26T23:21:34.012Z,0.80
2019-01-26T23:24:20.659Z,0.93
2019-01-26T23:27:09.024Z,1.00
2019-01-26T23:29:43.279Z,1.00
2019-01-26T23:32:11.776Z,0.87
2019-01-26T23:34:40.244Z,0.70
2019-01-26T23:37:08.671Z,0.70
2019-01-26T23:39:37.123Z,0.50
2019-01-26T23:42:05.622Z,0.70
2019-01-26T23:44:42.115Z,0.97
2019-01-26T23:47:10.622Z,0.80
2019-01-26T23:49:47.865Z,1.00
2019-01-26T23:52:16.300Z,2.00
2019-01-26T23:54:50.756Z,2.23
2019-01-26T23:57:26.267Z,0.73
2019-01-26T23:59:54.807Z,0.70
